Rechercher aéroport 
image banner adimage banner adimage banner ad
image banner ad

CA43 - Barton Memorial Hospital

Situé à South Lake Tahoe, United States

ICAO - CA43, IATA -

Données fournies par Airmate  

Information générale

Coordonnées: N38°54'41" W119°59'49"
Élévation : 6298 feet MSL.
Variation magnétique : 16° East
Voir autres Aéroports à California

Données opérationnelles

Special qualification required
Heure actuelle UTC:
Heure actuelle locale:
Météo à : KTVL - Lake Tahoe ( 2 km )
METAR: KTVL 231453Z AUTO 17003KT 6SM HZ CLR 03/M01 A3028 RMK AO2 SLP223 T00281006 50001
TAF: KTVL 231135Z 2312/2412 18004KT P6SM FEW250 FM231800 04008KT P6SM SCT250 FM240200 VRB03KT P6SM SKC
Voir NOTAMs / SUP AIP / TFR affectant cet aéroport [VIEW]
Fréquences de communication: [VIEW]

Pistes:

Coordonnées de l'aéroport

Adresse: South Lake Tahoe United States

Vue satellite de CA43